Time;durP1;ratioP1;P1;durP2;ratioP2;P2;SDS_P1;SDS_P2;PMS_P1;PMS_P2;Temp;Humidity;BMP_temperature;BMP_pressure;BME280_temperature;BME280_humidity;BME280_pressure;Samples;Min_cycle;Max_cycle;Signal;HPM_P1;HPM_P2
2022/08/24 00:01:39;;;;;;;17.88;7.65;;;;;;;;;;5078723;28;20277;-77
2022/08/24 00:04:10;;;;;;;16.02;7.57;;;21.00;99.90;;;;;;5078546;28;20054;-79
2022/08/24 00:06:36;;;;;;;17.30;8.13;;;21.10;99.90;;;;;;5078908;28;20103;-80
2022/08/24 00:09:02;;;;;;;16.52;7.47;;;21.50;99.90;;;;;;5078346;28;20158;-82
2022/08/24 00:11:28;;;;;;;13.68;6.78;;;;;;;;;;5060524;28;20012;-84
2022/08/24 00:13:56;;;;;;;20.10;8.73;;;21.10;99.90;;;;;;5060554;28;20103;-77
2022/08/24 00:16:23;;;;;;;16.35;7.88;;;21.10;99.90;;;;;;5061184;28;20506;-83
2022/08/24 00:19:01;;;;;;;18.65;8.60;;;21.10;99.90;;;;;;5079080;28;20096;-83
2022/08/24 00:21:26;;;;;;;14.88;6.85;;;21.30;99.90;;;;;;5061334;28;20689;-79
2022/08/24 00:23:57;;;;;;;13.95;7.35;;;21.10;99.90;;;;;;5078476;28;20024;-80
2022/08/24 00:26:24;;;;;;;14.98;8.05;;;21.50;99.90;;;;;;5078704;28;20020;-82
2022/08/24 00:28:50;;;;;;;18.08;7.30;;;21.40;99.90;;;;;;5078807;28;20285;-84
2022/08/24 00:31:16;;;;;;;19.38;8.23;;;21.10;99.90;;;;;;5079984;28;20525;-81
2022/08/24 00:33:42;;;;;;;16.40;7.55;;;21.10;99.90;;;;;;5062241;28;20712;-84
2022/08/24 00:36:08;;;;;;;15.77;7.53;;;21.10;99.90;;;;;;5089177;28;20016;-82
2022/08/24 00:38:35;;;;;;;15.90;7.03;;;21.10;99.90;;;;;;5086109;28;20072;-80
2022/08/24 00:41:02;;;;;;;15.70;7.38;;;21.10;99.90;;;;;;5079532;28;20767;-77
2022/08/24 00:43:28;;;;;;;19.85;7.43;;;21.40;99.90;;;;;;5078765;28;20024;-79
2022/08/24 00:46:12;;;;;;;15.13;6.63;;;21.60;99.90;;;;;;5060085;28;20074;-77
2022/08/24 00:48:43;;;;;;;16.23;8.18;;;21.20;99.90;;;;;;5078856;28;20655;-79
2022/08/24 00:51:27;;;;;;;15.32;7.28;;;21.40;99.90;;;;;;5079477;28;20077;-80
2022/08/24 00:54:00;;;;;;;15.98;7.13;;;21.10;99.90;;;;;;5075918;28;20025;-80
2022/08/24 00:56:31;;;;;;;15.45;6.53;;;21.10;99.90;;;;;;5071048;28;20077;-81
2022/08/24 00:59:02;;;;;;;21.30;7.82;;;21.30;99.90;;;;;;5060772;28;20131;-76
2022/08/24 01:01:30;;;;;;;20.45;7.50;;;21.10;99.90;;;;;;5059897;28;20235;-79
2022/08/24 01:03:57;;;;;;;15.18;7.05;;;21.10;99.90;;;;;;5078465;28;20025;-77
2022/08/24 01:06:24;;;;;;;16.42;7.40;;;21.00;99.90;;;;;;5078744;28;20688;-76
2022/08/24 01:08:49;;;;;;;14.07;6.90;;;21.70;99.90;;;;;;5082081;28;20244;-77
2022/08/24 01:11:29;;;;;;;15.05;7.95;;;21.10;99.90;;;;;;5082574;28;20016;-82
2022/08/24 01:14:04;;;;;;;15.32;7.15;;;21.70;99.90;;;;;;5084283;28;20019;-84
2022/08/24 01:19:50;;;;;;;15.98;8.35;;;21.10;99.90;;;;;;5083495;28;20034;-84
2022/08/24 01:22:31;;;;;;;18.52;9.02;;;21.20;99.90;;;;;;5065614;28;20043;-84
2022/08/24 01:24:58;;;;;;;15.48;7.95;;;21.30;99.90;;;;;;5064494;28;20063;-81
2022/08/24 01:27:25;;;;;;;14.68;6.78;;;21.10;99.90;;;;;;5081705;28;20218;-79
2022/08/24 01:29:52;;;;;;;15.98;7.75;;;21.00;99.90;;;;;;5082390;28;20024;-78
2022/08/24 01:32:22;;;;;;;19.65;7.93;;;21.10;99.90;;;;;;5081848;28;20024;-79
2022/08/24 01:34:48;;;;;;;17.75;7.07;;;21.30;99.90;;;;;;5082144;28;20028;-75
2022/08/24 01:37:15;;;;;;;18.50;8.25;;;21.10;99.90;;;;;;5081680;28;20765;-82
2022/08/24 01:39:46;;;;;;;16.80;8.05;;;21.20;99.90;;;;;;5081265;28;20027;-79
2022/08/24 01:42:13;;;;;;;15.90;6.93;;;21.10;99.90;;;;;;5081660;28;20024;-85
2022/08/24 01:44:41;;;;;;;13.35;6.13;;;21.20;99.90;;;;;;5082066;28;20740;-78
2022/08/24 01:47:13;;;;;;;14.43;6.40;;;21.20;99.90;;;;;;5081419;28;20024;-82
2022/08/24 01:49:43;;;;;;;19.40;8.50;;;21.20;99.90;;;;;;5081968;28;20071;-80
2022/08/24 01:52:13;;;;;;;14.10;7.32;;;21.60;99.90;;;;;;5081458;28;20028;-79
2022/08/24 01:54:39;;;;;;;14.73;7.97;;;21.50;99.90;;;;;;5081911;28;20020;-84
2022/08/24 01:57:08;;;;;;;17.48;7.30;;;21.10;99.90;;;;;;5060230;28;20016;-79
2022/08/24 01:59:37;;;;;;;13.80;6.88;;;21.10;99.90;;;;;;5061049;28;20017;-84
2022/08/24 02:02:12;;;;;;;16.73;6.15;;;21.10;99.90;;;;;;5061074;28;20074;-83
2022/08/24 02:04:41;;;;;;;17.67;7.40;;;21.10;99.90;;;;;;5042985;28;20032;-77
2022/08/24 02:07:08;;;;;;;15.52;7.65;;;21.30;99.90;;;;;;5060826;28;20074;-76
2022/08/24 02:09:35;;;;;;;15.73;7.05;;;21.10;99.90;;;;;;5042521;28;20036;-82
2022/08/24 02:12:17;;;;;;;15.30;7.00;;;21.00;99.90;;;;;;5060777;28;20036;-79
2022/08/24 02:14:50;;;;;;;13.52;6.47;;;21.10;99.90;;;;;;5042254;28;20185;-85
2022/08/24 02:17:17;;;;;;;12.88;6.13;;;22.20;99.90;;;;;;5041953;28;20061;-83
2022/08/24 02:19:43;;;;;;;16.23;7.13;;;;;;;;;;5059799;28;20036;-75
2022/08/24 02:22:09;;;;;;;16.23;6.55;;;;;;;;;;5061175;28;20032;-81
2022/08/24 02:24:35;;;;;;;17.90;8.30;;;21.10;99.90;;;;;;5042862;28;20533;-79
2022/08/24 02:27:01;;;;;;;16.35;7.00;;;21.70;99.90;;;;;;5060605;28;20021;-78
2022/08/24 02:29:28;;;;;;;14.43;6.68;;;22.80;99.90;;;;;;5060526;28;20455;-78
2022/08/24 02:31:54;;;;;;;16.45;7.70;;;21.10;99.90;;;;;;5042227;28;20111;-79
2022/08/24 02:34:20;;;;;;;14.23;7.38;;;18.80;99.90;;;;;;5060055;28;20084;-75
2022/08/24 02:36:46;;;;;;;18.13;7.53;;;21.30;99.90;;;;;;5060793;28;20519;-81
2022/08/24 02:39:12;;;;;;;16.88;7.35;;;21.00;99.90;;;;;;5061130;28;20021;-78
2022/08/24 02:41:37;;;;;;;17.70;7.70;;;20.80;99.90;;;;;;5060547;28;20029;-76
2022/08/24 02:44:09;;;;;;;18.42;7.72;;;20.70;99.90;;;;;;5059958;28;20024;-77
2022/08/24 02:46:35;;;;;;;16.05;7.07;;;20.80;99.90;;;;;;5026202;28;20694;-80
2022/08/24 02:49:01;;;;;;;13.70;6.60;;;20.40;99.90;;;;;;5059629;28;20121;-75
2022/08/24 02:51:30;;;;;;;15.68;6.90;;;20.40;99.90;;;;;;5060528;28;20021;-79
2022/08/24 02:53:57;;;;;;;14.80;7.15;;;20.70;99.90;;;;;;5060478;28;20692;-77
2022/08/24 02:56:24;;;;;;;16.90;5.85;;;20.70;99.90;;;;;;5072122;28;20016;-80
2022/08/24 02:58:50;;;;;;;13.07;6.38;;;21.10;99.90;;;;;;5062133;28;20020;-83
2022/08/24 03:01:16;;;;;;;15.48;6.85;;;;;;;;;;5062149;28;20012;-83
2022/08/24 03:03:42;;;;;;;16.90;6.95;;;20.20;99.90;;;;;;5080174;28;20024;-76
2022/08/24 03:06:09;;;;;;;15.02;7.32;;;19.70;99.90;;;;;;5079726;28;20044;-75
2022/08/24 03:08:38;;;;;;;16.73;6.97;;;19.30;99.90;;;;;;5079827;28;20709;-86
2022/08/24 03:11:04;;;;;;;15.85;7.18;;;19.40;99.90;;;;;;5062864;28;20073;-83
2022/08/24 03:13:34;;;;;;;14.82;6.95;;;17.50;99.90;;;;;;5081031;28;20031;-85
2022/08/24 03:16:12;;;;;;;19.58;8.02;;;18.30;99.90;;;;;;5062155;28;20116;-80
2022/08/24 03:18:38;;;;;;;19.63;8.05;;;18.20;99.90;;;;;;5080415;28;20274;-80
2022/08/24 03:21:07;;;;;;;16.50;7.15;;;18.00;99.90;;;;;;5060452;28;20540;-88
2022/08/24 03:23:36;;;;;;;20.23;7.45;;;17.90;99.90;;;;;;5062414;28;20130;-78
2022/08/24 03:26:11;;;;;;;14.02;7.50;;;17.40;99.90;;;;;;5081775;28;20198;-89
2022/08/24 03:28:40;;;;;;;17.13;7.07;;;16.30;99.90;;;;;;5080132;28;20387;-78
2022/08/24 03:31:06;;;;;;;15.88;6.95;;;17.70;99.90;;;;;;5062892;28;20065;-84
2022/08/24 03:33:32;;;;;;;17.15;7.25;;;;;;;;;;5078343;28;20563;-78
2022/08/24 03:35:58;;;;;;;14.25;6.45;;;18.30;99.90;;;;;;5078291;28;20040;-82
2022/08/24 03:38:24;;;;;;;16.88;7.35;;;18.80;99.90;;;;;;5043739;28;20081;-82
2022/08/24 03:40:50;;;;;;;26.20;6.65;;;19.20;99.90;;;;;;5068609;28;20012;-82
2022/08/24 03:46:06;;;;;;;15.27;7.55;;;22.90;99.90;;;;;;5059013;28;20090;-80
2022/08/24 03:48:35;;;;;;;16.70;6.90;;;20.10;99.90;;;;;;5059302;28;20757;-76
2022/08/24 03:51:01;;;;;;;20.23;9.32;;;20.30;99.90;;;;;;5058971;28;20153;-77
2022/08/24 03:53:27;;;;;;;16.17;7.75;;;20.20;99.90;;;;;;5059270;28;20048;-79
2022/08/24 03:55:53;;;;;;;20.33;7.07;;;20.10;99.90;;;;;;5048930;28;20012;-81
2022/08/24 03:58:18;;;;;;;14.90;7.30;;;20.30;99.90;;;;;;5079186;28;20049;-80
2022/08/24 04:00:44;;;;;;;16.02;7.97;;;20.10;99.90;;;;;;5079041;28;20050;-83
2022/08/24 04:03:11;;;;;;;14.27;6.63;;;20.50;99.90;;;;;;5078772;28;20509;-79
2022/08/24 04:05:38;;;;;;;15.40;6.70;;;20.60;99.90;;;;;;5078683;28;20131;-84
2022/08/24 04:08:04;;;;;;;15.27;7.25;;;20.70;99.90;;;;;;5079459;28;20224;-83
2022/08/24 04:10:31;;;;;;;12.80;6.85;;;20.80;99.90;;;;;;5076865;28;20578;-83
2022/08/24 04:13:00;;;;;;;15.25;6.90;;;;;;;;;;5079541;28;20034;-79
2022/08/24 04:15:27;;;;;;;15.50;7.18;;;21.60;99.90;;;;;;5061561;28;20052;-83
2022/08/24 04:17:53;;;;;;;17.00;7.15;;;21.00;99.90;;;;;;5079386;28;20019;-81
2022/08/24 04:20:22;;;;;;;14.20;6.70;;;21.00;99.90;;;;;;5078978;28;20024;-80
2022/08/24 04:22:50;;;;;;;16.17;7.32;;;20.90;99.90;;;;;;5079634;28;20038;-83
2022/08/24 04:25:16;;;;;;;13.35;6.60;;;20.90;99.90;;;;;;5078977;28;20113;-82
2022/08/24 04:27:42;;;;;;;13.07;7.45;;;20.90;99.90;;;;;;5060793;28;20030;-76
2022/08/24 04:30:09;;;;;;;17.52;7.15;;;21.00;99.90;;;;;;5078852;28;20020;-78
2022/08/24 04:32:34;;;;;;;14.07;7.35;;;21.00;99.90;;;;;;5078751;28;20019;-81
2022/08/24 04:35:00;;;;;;;16.38;6.32;;;21.10;99.90;;;;;;5078929;28;20020;-76
2022/08/24 04:37:26;;;;;;;15.55;6.32;;;23.00;99.90;;;;;;5060549;28;20020;-78
2022/08/24 04:39:52;;;;;;;14.63;7.38;;;21.00;99.90;;;;;;5079082;28;20101;-76
2022/08/24 04:42:18;;;;;;;16.00;6.65;;;21.10;99.90;;;;;;5078178;28;20024;-75
2022/08/24 04:44:45;;;;;;;14.65;6.88;;;;;;;;;;5077858;28;20043;-78
2022/08/24 04:47:11;;;;;;;16.88;6.70;;;21.10;99.90;;;;;;5077929;28;20016;-81
2022/08/24 04:49:37;;;;;;;18.25;8.55;;;21.10;99.90;;;;;;5079404;28;20127;-79
2022/08/24 04:52:04;;;;;;;13.40;6.43;;;21.10;99.90;;;;;;5079243;28;20104;-80
2022/08/24 04:54:33;;;;;;;14.27;6.60;;;23.20;99.90;;;;;;5079494;28;20024;-80
2022/08/24 04:56:59;;;;;;;20.92;6.95;;;21.00;99.90;;;;;;5079757;28;20013;-81
2022/08/24 04:59:25;;;;;;;16.38;6.40;;;21.00;99.90;;;;;;5061472;28;20038;-84
2022/08/24 05:01:52;;;;;;;17.42;7.13;;;20.90;99.90;;;;;;5079420;28;20012;-83
2022/08/24 05:04:18;;;;;;;15.98;6.68;;;;;;;;;;5079738;28;20036;-82
2022/08/24 05:06:44;;;;;;;13.80;8.15;;;20.80;99.90;;;;;;5061467;28;20027;-86
2022/08/24 05:09:10;;;;;;;13.75;7.55;;;21.10;99.90;;;;;;5061012;28;20040;-80
2022/08/24 05:11:39;;;;;;;14.82;6.95;;;20.90;99.90;;;;;;5080844;28;20024;-84
2022/08/24 05:14:16;;;;;;;17.55;7.18;;;18.70;99.90;;;;;;5064894;28;20024;-81
2022/08/24 05:16:42;;;;;;;13.68;6.15;;;21.10;99.90;;;;;;5086530;28;20048;-84
2022/08/24 05:19:08;;;;;;;16.48;7.28;;;21.50;99.90;;;;;;5083484;28;20019;-84
2022/08/24 05:21:34;;;;;;;15.80;7.30;;;21.60;99.90;;;;;;5046640;28;20263;-86
2022/08/24 05:23:59;;;;;;;16.30;6.78;;;20.90;99.90;;;;;;5081522;28;20093;-83
2022/08/24 05:26:27;;;;;;;14.38;6.88;;;20.90;99.90;;;;;;5081581;28;20020;-86
2022/08/24 05:28:56;;;;;;;15.65;6.97;;;20.90;99.90;;;;;;5063454;28;20016;-81
2022/08/24 05:31:24;;;;;;;12.75;6.03;;;20.90;99.90;;;;;;5080834;28;20085;-80
2022/08/24 05:33:50;;;;;;;16.83;7.43;;;21.20;99.90;;;;;;5078133;28;20565;-76
2022/08/24 05:36:24;;;;;;;18.30;6.88;;;21.20;99.90;;;;;;5079026;28;20028;-80
2022/08/24 05:38:52;;;;;;;15.80;6.72;;;20.90;99.90;;;;;;5060808;28;20031;-82
2022/08/24 05:41:18;;;;;;;16.08;7.45;;;20.90;99.90;;;;;;5078491;28;20023;-83
2022/08/24 05:43:44;;;;;;;16.80;8.05;;;21.00;99.90;;;;;;5078080;28;20028;-82
2022/08/24 05:46:11;;;;;;;21.15;7.40;;;;;;;;;;5060035;28;20225;-85
2022/08/24 05:48:37;;;;;;;17.13;7.28;;;21.00;99.90;;;;;;5060531;28;20026;-86
2022/08/24 05:51:04;;;;;;;16.63;7.97;;;20.90;99.90;;;;;;5078126;28;20021;-79
2022/08/24 05:53:30;;;;;;;16.38;7.47;;;20.90;99.90;;;;;;5060048;28;20034;-79
2022/08/24 05:55:56;;;;;;;16.27;7.47;;;21.30;99.90;;;;;;5081681;28;20036;-79
2022/08/24 05:58:22;;;;;;;16.30;6.65;;;22.20;99.90;;;;;;5064415;28;20025;-81
2022/08/24 06:00:49;;;;;;;16.50;7.05;;;;;;;;;;5081835;28;20020;-76
2022/08/24 06:03:15;;;;;;;16.70;7.72;;;;;;;;;;5081112;28;20115;-79
2022/08/24 06:05:42;;;;;;;17.48;7.45;;;21.00;99.90;;;;;;5064082;28;20135;-77
2022/08/24 06:08:08;;;;;;;14.32;7.82;;;20.80;99.90;;;;;;5081214;28;20114;-79
2022/08/24 06:10:44;;;;;;;15.60;8.23;;;21.20;99.90;;;;;;5081256;28;20103;-75
2022/08/24 06:13:14;;;;;;;18.02;8.48;;;21.10;99.90;;;;;;5082304;28;20016;-86
2022/08/24 06:15:43;;;;;;;15.07;7.15;;;;;;;;;;5081431;28;20009;-86
2022/08/24 06:18:09;;;;;;;15.63;7.82;;;;;;;;;;5063420;28;20024;-76
2022/08/24 06:20:41;;;;;;;15.45;6.43;;;21.20;99.90;;;;;;5082275;28;20016;-86
2022/08/24 06:23:10;;;;;;;16.42;7.70;;;21.00;99.90;;;;;;5082919;28;20020;-77
2022/08/24 06:28:31;;;;;;;16.07;7.30;;;19.00;99.90;;;;;;5083205;28;20038;-77
2022/08/24 06:31:02;;;;;;;14.45;6.88;;;21.20;99.90;;;;;;5063326;28;20032;-82
2022/08/24 06:33:28;;;;;;;19.25;8.18;;;21.40;99.90;;;;;;5063056;28;20035;-83
2022/08/24 06:35:53;;;;;;;18.42;7.53;;;21.20;99.90;;;;;;5081339;28;20024;-81
2022/08/24 06:38:19;;;;;;;12.68;6.40;;;21.00;99.90;;;;;;5081220;28;20570;-82
2022/08/24 06:43:45;;;;;;;15.90;7.35;;;20.30;99.90;;;;;;5017563;28;20136;-77
2022/08/24 06:46:11;;;;;;;14.23;6.30;;;21.40;99.90;;;;;;5000250;28;20109;-83
2022/08/24 06:48:37;;;;;;;15.52;7.60;;;;;;;;;;5017756;28;20072;-84
2022/08/24 06:51:16;;;;;;;14.23;6.18;;;21.40;99.90;;;;;;5001700;28;20021;-79
2022/08/24 06:53:45;;;;;;;15.32;6.60;;;21.40;99.90;;;;;;5018272;28;20691;-77
2022/08/24 06:56:14;;;;;;;16.98;7.75;;;20.60;99.90;;;;;;5017916;28;20051;-75
2022/08/24 06:58:42;;;;;;;15.43;8.35;;;21.40;99.90;;;;;;5016523;28;20049;-82
2022/08/24 07:01:19;;;;;;;20.90;9.05;;;21.40;99.90;;;;;;5016514;28;20744;-81
2022/08/24 07:03:46;;;;;;;16.98;8.00;;;;;;;;;;5017334;28;20033;-77
2022/08/24 07:06:13;;;;;;;17.83;8.43;;;21.10;99.90;;;;;;5017327;28;20708;-86
2022/08/24 07:08:42;;;;;;;20.90;9.38;;;21.20;99.90;;;;;;5000883;28;20535;-83
2022/08/24 07:11:09;;;;;;;19.52;10.05;;;18.00;99.90;;;;;;5001233;28;20028;-78
2022/08/24 07:13:37;;;;;;;18.80;9.07;;;20.50;99.90;;;;;;5002213;28;20030;-81
2022/08/24 07:16:16;;;;;;;16.17;8.90;;;20.00;99.90;;;;;;5018185;28;20022;-88
2022/08/24 07:18:43;;;;;;;21.83;9.18;;;19.80;99.90;;;;;;5017849;28;20064;-77
2022/08/24 07:21:09;;;;;;;22.48;10.20;;;20.00;99.90;;;;;;5063421;28;20028;-77
2022/08/24 07:23:36;;;;;;;27.10;10.27;;;18.40;99.90;;;;;;5079957;28;20032;-76
2022/08/24 07:26:07;;;;;;;23.98;10.02;;;19.30;99.90;;;;;;5080987;28;20531;-78
2022/08/24 07:28:36;;;;;;;20.85;10.25;;;19.50;99.90;;;;;;5080120;28;20021;-79
2022/08/24 07:31:02;;;;;;;21.33;9.98;;;19.10;99.90;;;;;;5081315;28;20077;-79
2022/08/24 07:33:29;;;;;;;16.70;8.48;;;19.40;99.90;;;;;;5079803;28;20024;-86
2022/08/24 07:35:55;;;;;;;23.40;9.02;;;;;;;;;;5063354;28;20016;-81
2022/08/24 07:38:21;;;;;;;20.48;8.65;;;19.10;99.90;;;;;;5080358;28;20021;-83
2022/08/24 07:40:47;;;;;;;23.88;8.63;;;19.00;99.90;;;;;;5079684;28;20031;-77
2022/08/24 07:43:13;;;;;;;21.48;8.50;;;19.10;99.90;;;;;;5080049;28;20034;-81
2022/08/24 07:45:41;;;;;;;20.83;8.75;;;19.50;99.90;;;;;;5084591;28;20517;-81
2022/08/24 07:48:07;;;;;;;18.38;8.52;;;19.10;99.90;;;;;;5085822;28;20008;-78
2022/08/24 07:50:34;;;;;;;22.23;10.02;;;19.10;99.90;;;;;;5086696;28;20739;-86
2022/08/24 07:53:00;;;;;;;16.35;8.80;;;18.90;99.90;;;;;;5086591;28;20101;-78
2022/08/24 07:55:26;;;;;;;21.67;10.38;;;;;;;;;;5085128;28;20019;-78
2022/08/24 07:57:52;;;;;;;18.58;9.25;;;19.00;99.90;;;;;;5067673;28;20042;-78
2022/08/24 08:00:19;;;;;;;19.58;8.55;;;19.00;99.90;;;;;;5085475;28;20468;-81
2022/08/24 08:02:48;;;;;;;17.88;9.25;;;19.00;99.90;;;;;;5082943;28;20020;-79
2022/08/24 08:05:16;;;;;;;23.35;10.63;;;19.00;99.90;;;;;;5064492;28;20047;-78
2022/08/24 08:07:45;;;;;;;20.85;11.02;;;18.90;99.90;;;;;;5080007;28;20054;-76
2022/08/24 08:10:11;;;;;;;20.17;9.43;;;18.70;99.90;;;;;;5054855;28;20044;-78
2022/08/24 08:12:38;;;;;;;23.02;8.77;;;18.80;99.90;;;;;;5084769;28;20390;-81
2022/08/24 08:15:21;;;;;;;20.50;9.50;;;18.80;99.90;;;;;;5084055;28;20026;-79
2022/08/24 08:18:20;;;;;;;14.60;7.32;;;19.00;99.90;;;;;;5064424;28;20039;-87
2022/08/24 08:20:46;;;;;;;18.95;9.30;;;18.60;99.90;;;;;;5000863;28;20199;-79
2022/08/24 08:26:19;;;;;;;16.92;8.73;;;20.40;99.90;;;;;;4998695;28;20036;-85
2022/08/24 08:28:45;;;;;;;20.00;7.70;;;20.00;99.90;;;;;;4980825;28;20732;-77
2022/08/24 08:31:11;;;;;;;23.05;11.07;;;;;;;;;;4996478;28;20712;-80
2022/08/24 08:33:37;;;;;;;21.02;9.65;;;19.90;99.90;;;;;;4996466;28;20033;-76
2022/08/24 08:36:10;;;;;;;17.65;7.35;;;19.80;99.90;;;;;;4996908;28;20022;-79
2022/08/24 08:38:38;;;;;;;16.02;8.02;;;18.50;99.90;;;;;;4979756;28;20029;-78
2022/08/24 08:41:10;;;;;;;15.10;6.53;;;19.30;99.90;;;;;;4995887;28;20054;-77
2022/08/24 08:43:59;;;;;;;17.83;8.60;;;20.10;99.90;;;;;;4995438;28;20037;-80
2022/08/24 08:47:04;;;;;;;18.23;8.85;;;20.70;99.90;;;;;;5003873;28;20036;-76
2022/08/24 08:49:44;;;;;;;18.98;8.77;;;20.40;99.90;;;;;;5007222;28;20026;-80
2022/08/24 08:52:43;;;;;;;20.38;9.68;;;20.60;99.90;;;;;;4998245;28;20034;-76
2022/08/24 08:55:22;;;;;;;17.88;8.98;;;20.90;99.90;;;;;;4994773;28;20022;-76
2022/08/24 08:58:07;;;;;;;21.17;9.55;;;20.70;99.90;;;;;;5037412;28;20124;-78
2022/08/24 09:01:14;;;;;;;18.25;9.05;;;20.90;99.90;;;;;;5051407;28;20024;-82
2022/08/24 09:04:07;;;;;;;24.80;9.18;;;21.00;99.90;;;;;;5010978;28;20270;-81
2022/08/24 09:06:49;;;;;;;23.00;11.57;;;21.10;99.90;;;;;;4994695;28;20013;-79
2022/08/24 09:09:52;;;;;;;19.65;9.57;;;21.00;99.90;;;;;;5012992;28;20313;-83
2022/08/24 09:12:49;;;;;;;18.20;9.38;;;21.10;99.90;;;;;;5008114;28;20044;-79
2022/08/24 09:15:23;;;;;;;18.42;10.30;;;21.40;99.90;;;;;;5013534;28;20463;-83
2022/08/24 09:17:58;;;;;;;17.05;8.50;;;21.90;99.90;;;;;;5013419;28;20052;-81
2022/08/24 09:20:48;;;;;;;16.15;8.15;;;21.60;99.90;;;;;;4997327;28;20041;-80
2022/08/24 09:23:14;;;;;;;21.73;9.10;;;;;;;;;;5014428;28;20026;-77
2022/08/24 09:25:46;;;;;;;24.85;9.02;;;22.10;99.90;;;;;;5014127;28;20116;-75
2022/08/24 09:28:34;;;;;;;15.68;7.60;;;22.10;99.90;;;;;;4998249;28;20083;-81
2022/08/24 09:31:08;;;;;;;17.25;7.88;;;22.70;99.90;;;;;;5018728;28;20045;-77
2022/08/24 09:33:52;;;;;;;14.85;7.90;;;22.40;99.90;;;;;;4990246;28;20036;-83
2022/08/24 09:36:35;;;;;;;18.05;8.60;;;22.40;99.90;;;;;;4999037;28;20095;-81
2022/08/24 09:39:16;;;;;;;20.23;8.38;;;21.80;99.90;;;;;;5018765;28;20022;-76
2022/08/24 09:42:30;;;;;;;18.58;9.20;;;22.50;99.90;;;;;;5060544;28;20682;-88
2022/08/24 09:45:13;;;;;;;19.60;9.77;;;22.00;99.90;;;;;;4968147;28;20046;-76
2022/08/24 09:48:22;;;;;;;19.58;8.07;;;22.10;99.90;;;;;;4969430;28;20066;-76
2022/08/24 09:50:58;;;;;;;16.48;8.73;;;22.20;99.90;;;;;;4967124;28;20023;-77
2022/08/24 09:54:04;;;;;;;17.83;8.55;;;22.20;99.90;;;;;;4962283;28;20042;-88
2022/08/24 09:56:55;;;;;;;18.83;8.50;;;22.20;99.90;;;;;;4965330;28;20059;-83
2022/08/24 09:59:55;;;;;;;20.25;8.73;;;22.10;99.90;;;;;;4978648;28;20014;-83
2022/08/24 10:02:42;;;;;;;16.27;8.65;;;18.80;99.90;;;;;;4977443;28;20118;-74
2022/08/24 10:05:33;;;;;;;20.70;9.27;;;22.00;99.90;;;;;;4977686;28;20056;-82
2022/08/24 10:08:26;;;;;;;17.85;8.68;;;22.00;99.90;;;;;;4972637;28;20023;-77
2022/08/24 10:11:07;;;;;;;17.05;8.25;;;22.70;99.90;;;;;;4978939;28;20744;-77
2022/08/24 10:13:42;;;;;;;16.15;9.10;;;22.20;99.90;;;;;;4978075;28;20532;-80
2022/08/24 10:16:19;;;;;;;17.52;8.48;;;22.30;99.90;;;;;;4978140;28;20031;-82
2022/08/24 10:19:13;;;;;;;19.23;9.65;;;22.10;99.90;;;;;;4978019;28;20025;-82
2022/08/24 10:21:52;;;;;;;17.67;7.88;;;22.10;99.90;;;;;;5028874;28;20124;-78
2022/08/24 10:24:38;;;;;;;15.55;8.30;;;22.10;99.90;;;;;;5079625;28;20028;-81
2022/08/24 10:27:25;;;;;;;16.33;7.93;;;22.50;99.90;;;;;;5079404;28;20271;-74
2022/08/24 10:30:37;;;;;;;17.83;8.00;;;22.40;99.90;;;;;;5079428;28;20012;-76
2022/08/24 10:33:23;;;;;;;14.77;7.55;;;22.50;99.90;;;;;;5070981;28;20082;-76
2022/08/24 10:36:16;;;;;;;20.17;9.48;;;22.70;99.90;;;;;;5091458;28;20231;-88
2022/08/24 10:42:10;;;;;;;21.20;8.80;;;19.80;99.90;;;;;;5097675;28;20709;-83
2022/08/24 10:45:14;;;;;;;18.08;9.05;;;23.20;99.90;;;;;;5079579;28;20032;-80
2022/08/24 10:48:05;;;;;;;19.87;9.00;;;23.50;99.90;;;;;;5009334;28;20145;-86
2022/08/24 10:51:18;;;;;;;15.18;7.97;;;23.60;99.90;;;;;;5017431;28;20030;-85
2022/08/24 10:53:55;;;;;;;15.25;8.60;;;24.20;99.90;;;;;;4967699;28;20034;-79
2022/08/24 10:56:47;;;;;;;15.95;8.00;;;24.40;99.90;;;;;;4964343;28;20036;-82
2022/08/24 10:59:18;;;;;;;17.17;8.55;;;24.50;99.90;;;;;;4959868;28;20057;-85
2022/08/24 11:02:08;;;;;;;18.55;7.63;;;24.50;99.90;;;;;;4961650;28;20027;-76
2022/08/24 11:04:35;;;;;;;13.50;7.18;;;24.60;99.90;;;;;;4961396;28;20706;-87
2022/08/24 11:07:19;;;;;;;16.25;8.05;;;24.50;99.90;;;;;;4944021;28;20031;-76
2022/08/24 11:10:00;;;;;;;13.50;6.82;;;25.30;99.90;;;;;;4939717;28;20030;-78
2022/08/24 11:12:36;;;;;;;17.80;7.70;;;25.40;99.90;;;;;;4959578;28;20034;-82
2022/08/24 11:15:55;;;;;;;13.45;6.80;;;24.70;99.90;;;;;;4959144;28;20722;-82
2022/08/24 11:18:15;;;;;;;16.55;8.20;;;24.70;99.90;;;;;;4963374;28;20038;-87
2022/08/24 11:20:45;;;;;;;12.05;6.20;;;24.70;99.90;;;;;;4967476;28;20167;-80
2022/08/24 11:23:36;;;;;;;15.23;7.18;;;24.80;99.90;;;;;;4966542;28;20115;-89
2022/08/24 11:26:20;;;;;;;13.02;6.22;;;25.80;99.90;;;;;;5025701;28;20589;-87
2022/08/24 11:28:59;;;;;;;13.75;6.90;;;25.40;99.90;;;;;;5007490;28;20056;-75
2022/08/24 11:31:38;;;;;;;11.18;5.43;;;26.00;99.80;;;;;;5029682;28;20044;-75
2022/08/24 11:34:17;;;;;;;10.43;5.30;;;25.40;99.40;;;;;;5023962;28;20041;-75
2022/08/24 11:36:43;;;;;;;13.35;6.18;;;26.00;98.20;;;;;;5022840;28;20519;-75
2022/08/24 11:39:43;;;;;;;12.50;5.72;;;25.90;98.60;;;;;;5037922;28;20059;-76
2022/08/24 11:42:31;;;;;;;13.07;6.20;;;25.90;98.00;;;;;;5022883;28;20030;-79
2022/08/24 11:45:05;;;;;;;12.18;5.28;;;26.00;98.30;;;;;;5021930;28;20538;-75
2022/08/24 11:48:17;;;;;;;11.95;5.82;;;24.80;99.00;;;;;;5039483;28;20617;-74
2022/08/24 11:50:54;;;;;;;9.85;4.88;;;25.40;99.60;;;;;;4979976;28;20133;-74
2022/08/24 11:53:58;;;;;;;12.23;5.28;;;25.50;99.90;;;;;;4980006;28;20042;-81
2022/08/24 11:56:29;;;;;;;11.15;5.70;;;25.10;99.90;;;;;;4977675;28;20027;-78
2022/08/24 11:59:35;;;;;;;16.52;5.38;;;25.90;99.90;;;;;;4978903;28;20022;-90
2022/08/24 12:02:50;;;;;;;12.85;6.07;;;24.80;99.90;;;;;;4989292;28;20689;-84
2022/08/24 12:05:24;;;;;;;10.82;6.07;;;24.60;99.90;;;;;;4928481;29;20123;-86
2022/08/24 12:08:03;;;;;;;12.70;6.05;;;24.70;99.90;;;;;;4921935;29;20479;-85
2022/08/24 12:10:56;;;;;;;10.55;5.82;;;24.80;99.90;;;;;;4939883;29;20050;-86
2022/08/24 12:13:53;;;;;;;13.20;7.13;;;24.90;99.90;;;;;;4925163;29;20024;-80
2022/08/24 12:16:48;;;;;;;13.75;6.30;;;25.00;99.90;;;;;;4931510;28;20032;-87
2022/08/24 12:19:53;;;;;;;;;;;;;;;;;;;;;
2022/08/24 12:22:23;;;;;;;10.90;5.75;;;25.20;99.90;;;;;;4913700;29;20040;-85
2022/08/24 12:28:20;;;;;;;11.48;6.47;;;26.20;99.90;;;;;;4968835;28;20033;-85
2022/08/24 12:30:46;;;;;;;12.23;5.53;;;24.90;99.90;;;;;;4983595;28;20026;-81
2022/08/24 12:33:14;;;;;;;15.35;6.38;;;25.30;99.90;;;;;;4949412;28;20030;-77
2022/08/24 12:35:47;;;;;;;14.38;6.28;;;22.80;99.90;;;;;;5050020;22;20056;-83
2022/08/24 12:38:27;;;;;;;14.18;6.25;;;26.00;99.90;;;;;;5084866;28;20051;-80
2022/08/24 12:41:12;;;;;;;11.30;5.55;;;24.70;99.90;;;;;;5097682;28;20748;-79
2022/08/24 12:43:45;;;;;;;10.80;5.55;;;24.70;99.90;;;;;;5091597;28;20092;-77
2022/08/24 12:46:14;;;;;;;13.07;5.65;;;24.60;99.90;;;;;;5109120;28;20041;-84
2022/08/24 12:48:52;;;;;;;12.27;5.80;;;24.40;99.90;;;;;;5090137;28;20032;-78
2022/08/24 12:52:09;;;;;;;11.65;5.40;;;24.40;99.90;;;;;;5090065;28;20539;-79
2022/08/24 12:54:56;;;;;;;14.23;6.68;;;24.20;99.90;;;;;;5050384;28;20041;-81
2022/08/24 12:57:50;;;;;;;12.88;6.47;;;24.10;99.90;;;;;;5070875;28;20035;-87
2022/08/24 13:00:42;;;;;;;11.88;5.28;;;21.50;99.90;;;;;;5082523;28;20028;-86
2022/08/24 13:03:26;;;;;;;11.60;6.05;;;26.70;99.90;;;;;;5060353;28;20702;-73
2022/08/24 13:06:09;;;;;;;14.88;6.43;;;23.80;99.90;;;;;;5050506;28;20040;-81
2022/08/24 13:09:04;;;;;;;;;;;;;;;;;;;;;
2022/08/24 13:11:55;;;;;;;12.38;6.63;;;23.60;99.90;;;;;;5084286;28;20024;-84
2022/08/24 13:14:37;;;;;;;13.90;6.20;;;23.60;99.90;;;;;;4998904;28;20035;-79
2022/08/24 13:17:37;;;;;;;14.35;6.68;;;20.90;99.90;;;;;;5054588;28;20021;-87
2022/08/24 13:24:33;;;;;;;12.00;5.78;;;23.40;99.90;;;;;;4973493;28;20182;-78
2022/08/24 13:27:11;;;;;;;11.82;5.90;;;23.50;99.90;;;;;;4962941;28;20042;-78
2022/08/24 13:30:15;;;;;;;12.52;6.93;;;23.30;99.90;;;;;;4978826;28;20058;-77
2022/08/24 13:33:20;;;;;;;;;;;;;;;;;;;;;
2022/08/24 13:36:35;;;;;;;14.77;7.03;;;22.30;99.90;;;;;;5102068;22;20048;-83
2022/08/24 13:39:04;;;;;;;14.30;6.93;;;23.20;99.90;;;;;;5065098;28;20036;-79
2022/08/24 13:42:09;;;;;;;15.82;7.28;;;23.20;99.90;;;;;;5021585;28;20057;-79
2022/08/24 13:45:09;;;;;;;18.23;8.25;;;23.30;99.90;;;;;;5001454;28;20041;-78
2022/08/24 13:48:01;;;;;;;13.80;6.82;;;23.80;99.90;;;;;;5001146;28;20028;-79
2022/08/24 13:54:06;;;;;;;14.40;7.22;;;27.40;99.90;;;;;;5002801;28;20030;-80